sensor_id;sensor_type;location;lat;lon;timestamp;pressure;altitude;pressure_sealevel;temperature;humidity
48810;BME280;40070;47.322;18.784;2022-10-15T00:00:24;1005.03;;;12.09;65.98
48810;BME280;40070;47.322;18.784;2022-10-15T00:02:26;1005.02;;;12.08;66.11
48810;BME280;40070;47.322;18.784;2022-10-15T00:04:29;1005.08;;;12.09;66.05
48810;BME280;40070;47.322;18.784;2022-10-15T00:06:31;1005.10;;;12.07;66.13
48810;BME280;40070;47.322;18.784;2022-10-15T00:08:34;1005.09;;;12.10;66.08
48810;BME280;40070;47.322;18.784;2022-10-15T00:10:37;1005.05;;;12.12;65.89
48810;BME280;40070;47.322;18.784;2022-10-15T00:12:39;1005.03;;;12.17;65.63
48810;BME280;40070;47.322;18.784;2022-10-15T00:14:42;1005.09;;;11.98;65.92
48810;BME280;40070;47.322;18.784;2022-10-15T00:16:45;1005.06;;;12.06;65.79
48810;BME280;40070;47.322;18.784;2022-10-15T00:18:47;1005.12;;;11.92;65.95
48810;BME280;40070;47.322;18.784;2022-10-15T00:20:50;1005.16;;;11.75;66.65
48810;BME280;40070;47.322;18.784;2022-10-15T00:22:52;1005.12;;;11.88;66.26
48810;BME280;40070;47.322;18.784;2022-10-15T00:24:55;1005.08;;;12.01;66.00
48810;BME280;40070;47.322;18.784;2022-10-15T00:26:57;1005.06;;;11.84;66.56
48810;BME280;40070;47.322;18.784;2022-10-15T00:29:00;1005.01;;;11.85;66.38
48810;BME280;40070;47.322;18.784;2022-10-15T00:31:04;1005.02;;;11.85;66.34
48810;BME280;40070;47.322;18.784;2022-10-15T00:33:07;1004.98;;;11.82;66.32
48810;BME280;40070;47.322;18.784;2022-10-15T00:35:10;1004.92;;;11.85;66.30
48810;BME280;40070;47.322;18.784;2022-10-15T00:37:12;1004.94;;;11.75;66.49
48810;BME280;40070;47.322;18.784;2022-10-15T00:39:15;1004.94;;;11.82;66.59
48810;BME280;40070;47.322;18.784;2022-10-15T00:41:18;1004.94;;;11.95;66.23
48810;BME280;40070;47.322;18.784;2022-10-15T00:43:34;1004.92;;;11.99;66.19
48810;BME280;40070;47.322;18.784;2022-10-15T00:45:37;1004.87;;;11.92;66.46
48810;BME280;40070;47.322;18.784;2022-10-15T00:47:40;1004.85;;;11.81;66.84
48810;BME280;40070;47.322;18.784;2022-10-15T00:49:56;1004.85;;;11.87;66.88
48810;BME280;40070;47.322;18.784;2022-10-15T00:52:01;1004.84;;;11.92;66.93
48810;BME280;40070;47.322;18.784;2022-10-15T00:54:04;1004.85;;;11.80;67.72
48810;BME280;40070;47.322;18.784;2022-10-15T00:56:06;1004.83;;;12.08;67.03
48810;BME280;40070;47.322;18.784;2022-10-15T00:58:16;1004.91;;;11.89;67.39
48810;BME280;40070;47.322;18.784;2022-10-15T01:00:21;1004.90;;;12.05;66.80
48810;BME280;40070;47.322;18.784;2022-10-15T01:02:24;1004.91;;;11.88;66.94
48810;BME280;40070;47.322;18.784;2022-10-15T01:04:26;1004.81;;;11.92;66.66
48810;BME280;40070;47.322;18.784;2022-10-15T01:06:29;1004.81;;;11.84;66.75
48810;BME280;40070;47.322;18.784;2022-10-15T01:08:34;1004.82;;;11.72;67.06
48810;BME280;40070;47.322;18.784;2022-10-15T01:10:43;1004.76;;;11.69;67.31
48810;BME280;40070;47.322;18.784;2022-10-15T01:15:07;1004.71;;;11.76;67.03
48810;BME280;40070;47.322;18.784;2022-10-15T01:17:27;1004.74;;;11.79;66.88
48810;BME280;40070;47.322;18.784;2022-10-15T01:19:48;1004.72;;;11.74;66.66
48810;BME280;40070;47.322;18.784;2022-10-15T01:22:05;1004.70;;;11.74;66.74
48810;BME280;40070;47.322;18.784;2022-10-15T01:25:23;1004.68;;;11.67;67.23
48810;BME280;40070;47.322;18.784;2022-10-15T01:36:31;1004.53;;;11.68;67.11
48810;BME280;40070;47.322;18.784;2022-10-15T01:38:36;1004.58;;;11.56;67.45
48810;BME280;40070;47.322;18.784;2022-10-15T01:40:46;1004.58;;;11.72;67.01
48810;BME280;40070;47.322;18.784;2022-10-15T01:42:58;1004.58;;;11.74;66.94
48810;BME280;40070;47.322;18.784;2022-10-15T01:45:11;1004.63;;;11.70;67.34
48810;BME280;40070;47.322;18.784;2022-10-15T01:47:18;1004.64;;;11.62;68.13
48810;BME280;40070;47.322;18.784;2022-10-15T01:49:22;1004.60;;;11.65;68.15
48810;BME280;40070;47.322;18.784;2022-10-15T01:51:27;1004.56;;;11.75;67.49
48810;BME280;40070;47.322;18.784;2022-10-15T01:53:31;1004.54;;;11.62;67.37
48810;BME280;40070;47.322;18.784;2022-10-15T01:55:35;1004.59;;;11.56;67.53
48810;BME280;40070;47.322;18.784;2022-10-15T01:57:39;1004.63;;;11.58;67.07
48810;BME280;40070;47.322;18.784;2022-10-15T01:59:43;1004.64;;;11.55;67.19
48810;BME280;40070;47.322;18.784;2022-10-15T02:01:45;1004.63;;;11.55;67.08
48810;BME280;40070;47.322;18.784;2022-10-15T02:03:49;1004.64;;;11.64;66.60
48810;BME280;40070;47.322;18.784;2022-10-15T02:05:55;1004.64;;;11.61;66.49
48810;BME280;40070;47.322;18.784;2022-10-15T02:08:03;1004.65;;;11.46;66.60
48810;BME280;40070;47.322;18.784;2022-10-15T02:10:18;1004.63;;;11.45;66.53
48810;BME280;40070;47.322;18.784;2022-10-15T02:12:30;1004.58;;;11.41;66.59
48810;BME280;40070;47.322;18.784;2022-10-15T02:14:34;1004.51;;;11.41;66.57
48810;BME280;40070;47.322;18.784;2022-10-15T02:16:40;1004.58;;;11.45;66.22
48810;BME280;40070;47.322;18.784;2022-10-15T02:21:21;1004.60;;;11.24;66.87
48810;BME280;40070;47.322;18.784;2022-10-15T02:23:16;1004.57;;;11.31;66.76
48810;BME280;40070;47.322;18.784;2022-10-15T02:25:20;1004.55;;;11.28;66.65
48810;BME280;40070;47.322;18.784;2022-10-15T02:27:25;1004.55;;;11.26;66.73
48810;BME280;40070;47.322;18.784;2022-10-15T02:29:30;1004.55;;;11.46;66.31
48810;BME280;40070;47.322;18.784;2022-10-15T02:31:34;1004.49;;;11.36;66.52
48810;BME280;40070;47.322;18.784;2022-10-15T02:33:38;1004.48;;;11.44;66.33
48810;BME280;40070;47.322;18.784;2022-10-15T02:35:42;1004.50;;;11.50;66.25
48810;BME280;40070;47.322;18.784;2022-10-15T02:37:47;1004.46;;;11.41;66.43
48810;BME280;40070;47.322;18.784;2022-10-15T02:39:50;1004.49;;;11.22;67.17
48810;BME280;40070;47.322;18.784;2022-10-15T02:41:53;1004.37;;;11.20;67.42
48810;BME280;40070;47.322;18.784;2022-10-15T02:43:55;1004.38;;;11.28;67.33
48810;BME280;40070;47.322;18.784;2022-10-15T02:45:58;1004.38;;;11.32;67.07
48810;BME280;40070;47.322;18.784;2022-10-15T02:48:00;1004.40;;;11.27;67.01
48810;BME280;40070;47.322;18.784;2022-10-15T02:50:03;1004.37;;;11.32;67.05
48810;BME280;40070;47.322;18.784;2022-10-15T02:52:05;1004.37;;;11.38;66.91
48810;BME280;40070;47.322;18.784;2022-10-15T02:54:08;1004.30;;;11.40;66.98
48810;BME280;40070;47.322;18.784;2022-10-15T02:56:10;1004.30;;;11.40;66.94
48810;BME280;40070;47.322;18.784;2022-10-15T02:58:13;1004.35;;;11.33;67.32
48810;BME280;40070;47.322;18.784;2022-10-15T03:00:15;1004.33;;;11.35;67.34
48810;BME280;40070;47.322;18.784;2022-10-15T03:02:18;1004.30;;;11.39;67.21
48810;BME280;40070;47.322;18.784;2022-10-15T03:04:20;1004.29;;;11.46;67.09
48810;BME280;40070;47.322;18.784;2022-10-15T03:06:23;1004.20;;;11.38;67.37
48810;BME280;40070;47.322;18.784;2022-10-15T03:08:25;1004.19;;;11.32;67.56
48810;BME280;40070;47.322;18.784;2022-10-15T03:10:27;1004.18;;;11.38;67.48
48810;BME280;40070;47.322;18.784;2022-10-15T03:12:30;1004.25;;;11.30;67.92
48810;BME280;40070;47.322;18.784;2022-10-15T03:14:32;1004.21;;;11.43;67.50
48810;BME280;40070;47.322;18.784;2022-10-15T03:16:35;1004.27;;;11.44;67.37
48810;BME280;40070;47.322;18.784;2022-10-15T03:18:37;1004.27;;;11.42;66.99
48810;BME280;40070;47.322;18.784;2022-10-15T03:20:40;1004.25;;;11.29;67.32
48810;BME280;40070;47.322;18.784;2022-10-15T03:22:42;1004.20;;;11.26;67.50
48810;BME280;40070;47.322;18.784;2022-10-15T03:24:45;1004.18;;;11.27;67.13
48810;BME280;40070;47.322;18.784;2022-10-15T03:26:47;1004.21;;;11.16;67.41
48810;BME280;40070;47.322;18.784;2022-10-15T03:28:49;1004.22;;;11.27;67.00
48810;BME280;40070;47.322;18.784;2022-10-15T03:30:52;1004.22;;;11.23;67.41
48810;BME280;40070;47.322;18.784;2022-10-15T03:32:54;1004.28;;;11.36;67.53
48810;BME280;40070;47.322;18.784;2022-10-15T03:34:57;1004.27;;;11.27;67.11
48810;BME280;40070;47.322;18.784;2022-10-15T03:36:59;1004.34;;;11.20;67.14
48810;BME280;40070;47.322;18.784;2022-10-15T03:39:02;1004.33;;;11.25;66.98
48810;BME280;40070;47.322;18.784;2022-10-15T03:41:04;1004.33;;;11.22;67.08
48810;BME280;40070;47.322;18.784;2022-10-15T03:43:07;1004.32;;;11.12;68.33
48810;BME280;40070;47.322;18.784;2022-10-15T03:45:09;1004.32;;;11.08;67.96
48810;BME280;40070;47.322;18.784;2022-10-15T03:47:12;1004.30;;;11.19;67.56
48810;BME280;40070;47.322;18.784;2022-10-15T03:49:14;1004.29;;;11.24;67.37
48810;BME280;40070;47.322;18.784;2022-10-15T03:51:17;1004.33;;;11.16;67.25
48810;BME280;40070;47.322;18.784;2022-10-15T03:53:19;1004.30;;;11.09;67.98
48810;BME280;40070;47.322;18.784;2022-10-15T03:55:22;1004.34;;;11.15;67.68
48810;BME280;40070;47.322;18.784;2022-10-15T03:57:24;1004.29;;;11.06;67.54
48810;BME280;40070;47.322;18.784;2022-10-15T03:59:26;1004.29;;;11.11;67.11
48810;BME280;40070;47.322;18.784;2022-10-15T04:01:29;1004.25;;;10.95;67.45
48810;BME280;40070;47.322;18.784;2022-10-15T04:03:31;1004.18;;;11.16;66.59
48810;BME280;40070;47.322;18.784;2022-10-15T04:05:34;1004.15;;;11.04;66.96
48810;BME280;40070;47.322;18.784;2022-10-15T04:07:36;1004.14;;;10.93;67.25
48810;BME280;40070;47.322;18.784;2022-10-15T04:09:39;1004.12;;;10.87;67.31
48810;BME280;40070;47.322;18.784;2022-10-15T04:11:41;1004.11;;;10.95;67.22
48810;BME280;40070;47.322;18.784;2022-10-15T04:13:47;1004.14;;;10.99;67.45
48810;BME280;40070;47.322;18.784;2022-10-15T04:15:49;1004.13;;;11.01;67.46
48810;BME280;40070;47.322;18.784;2022-10-15T04:17:55;1004.17;;;11.00;67.73
48810;BME280;40070;47.322;18.784;2022-10-15T04:19:57;1004.19;;;11.01;67.63
48810;BME280;40070;47.322;18.784;2022-10-15T04:22:00;1004.22;;;11.04;67.69
48810;BME280;40070;47.322;18.784;2022-10-15T04:24:02;1004.27;;;11.16;67.50
48810;BME280;40070;47.322;18.784;2022-10-15T04:26:05;1004.24;;;11.09;67.29
48810;BME280;40070;47.322;18.784;2022-10-15T04:28:07;1004.32;;;10.68;68.62
48810;BME280;40070;47.322;18.784;2022-10-15T04:30:10;1004.32;;;10.91;68.14
48810;BME280;40070;47.322;18.784;2022-10-15T04:32:13;1004.33;;;10.99;67.80
48810;BME280;40070;47.322;18.784;2022-10-15T04:34:15;1004.37;;;10.93;67.79
48810;BME280;40070;47.322;18.784;2022-10-15T04:36:18;1004.40;;;11.00;67.81
48810;BME280;40070;47.322;18.784;2022-10-15T04:38:20;1004.38;;;10.80;68.11
48810;BME280;40070;47.322;18.784;2022-10-15T04:40:23;1004.40;;;10.88;68.11
48810;BME280;40070;47.322;18.784;2022-10-15T04:42:27;1004.32;;;10.84;68.40
48810;BME280;40070;47.322;18.784;2022-10-15T04:44:29;1004.32;;;10.45;69.06
48810;BME280;40070;47.322;18.784;2022-10-15T04:46:32;1004.34;;;10.50;69.41
48810;BME280;40070;47.322;18.784;2022-10-15T04:48:35;1004.36;;;10.72;68.60
48810;BME280;40070;47.322;18.784;2022-10-15T04:50:38;1004.31;;;10.80;68.31
48810;BME280;40070;47.322;18.784;2022-10-15T04:52:40;1004.31;;;10.84;68.55
48810;BME280;40070;47.322;18.784;2022-10-15T04:54:43;1004.30;;;10.91;68.53
48810;BME280;40070;47.322;18.784;2022-10-15T04:56:45;1004.35;;;11.01;68.34
48810;BME280;40070;47.322;18.784;2022-10-15T04:58:48;1004.38;;;10.81;69.02
48810;BME280;40070;47.322;18.784;2022-10-15T05:00:51;1004.37;;;11.07;68.80
48810;BME280;40070;47.322;18.784;2022-10-15T05:02:53;1004.39;;;10.95;69.06
48810;BME280;40070;47.322;18.784;2022-10-15T05:04:56;1004.37;;;11.04;69.21
48810;BME280;40070;47.322;18.784;2022-10-15T05:06:58;1004.41;;;10.98;69.80
48810;BME280;40070;47.322;18.784;2022-10-15T05:09:00;1004.40;;;11.07;69.70
48810;BME280;40070;47.322;18.784;2022-10-15T05:11:03;1004.39;;;11.03;69.40
48810;BME280;40070;47.322;18.784;2022-10-15T05:13:06;1004.37;;;11.02;69.32
48810;BME280;40070;47.322;18.784;2022-10-15T05:15:08;1004.39;;;10.89;69.54
48810;BME280;40070;47.322;18.784;2022-10-15T05:17:11;1004.40;;;10.94;69.45
48810;BME280;40070;47.322;18.784;2022-10-15T05:19:13;1004.39;;;11.12;68.86
48810;BME280;40070;47.322;18.784;2022-10-15T05:21:16;1004.45;;;11.15;69.04
48810;BME280;40070;47.322;18.784;2022-10-15T05:23:19;1004.43;;;11.06;69.04
48810;BME280;40070;47.322;18.784;2022-10-15T05:25:21;1004.46;;;11.17;69.12
48810;BME280;40070;47.322;18.784;2022-10-15T05:27:24;1004.42;;;11.07;69.30
48810;BME280;40070;47.322;18.784;2022-10-15T05:29:26;1004.37;;;11.09;69.30
48810;BME280;40070;47.322;18.784;2022-10-15T05:31:29;1004.32;;;10.99;69.76
48810;BME280;40070;47.322;18.784;2022-10-15T05:33:32;1004.29;;;11.00;69.60
48810;BME280;40070;47.322;18.784;2022-10-15T05:35:35;1004.28;;;10.94;70.12
48810;BME280;40070;47.322;18.784;2022-10-15T05:37:37;1004.34;;;11.19;70.05
48810;BME280;40070;47.322;18.784;2022-10-15T05:39:39;1004.32;;;11.38;69.85
48810;BME280;40070;47.322;18.784;2022-10-15T05:41:42;1004.36;;;11.44;70.03
48810;BME280;40070;47.322;18.784;2022-10-15T05:43:48;1004.39;;;11.32;70.93
48810;BME280;40070;47.322;18.784;2022-10-15T05:45:54;1004.34;;;11.45;70.87
48810;BME280;40070;47.322;18.784;2022-10-15T05:47:56;1004.40;;;11.59;70.65
48810;BME280;40070;47.322;18.784;2022-10-15T05:49:58;1004.41;;;11.59;71.15
48810;BME280;40070;47.322;18.784;2022-10-15T05:52:01;1004.38;;;11.76;70.86
48810;BME280;40070;47.322;18.784;2022-10-15T05:54:03;1004.37;;;11.87;70.67
48810;BME280;40070;47.322;18.784;2022-10-15T05:56:06;1004.37;;;11.87;70.73
48810;BME280;40070;47.322;18.784;2022-10-15T05:58:08;1004.35;;;12.07;70.01
48810;BME280;40070;47.322;18.784;2022-10-15T06:00:11;1004.38;;;11.88;70.75
48810;BME280;40070;47.322;18.784;2022-10-15T06:02:14;1004.44;;;11.97;70.31
48810;BME280;40070;47.322;18.784;2022-10-15T06:04:16;1004.43;;;11.95;70.44
48810;BME280;40070;47.322;18.784;2022-10-15T06:06:22;1004.46;;;12.01;70.28
48810;BME280;40070;47.322;18.784;2022-10-15T06:08:26;1004.51;;;11.94;70.65
48810;BME280;40070;47.322;18.784;2022-10-15T06:10:28;1004.58;;;12.01;70.81
48810;BME280;40070;47.322;18.784;2022-10-15T06:12:31;1004.58;;;12.00;70.77
48810;BME280;40070;47.322;18.784;2022-10-15T06:14:33;1004.60;;;12.17;70.56
48810;BME280;40070;47.322;18.784;2022-10-15T06:16:36;1004.61;;;11.98;71.63
48810;BME280;40070;47.322;18.784;2022-10-15T06:18:38;1004.68;;;12.18;71.40
48810;BME280;40070;47.322;18.784;2022-10-15T06:20:41;1004.70;;;12.34;70.95
48810;BME280;40070;47.322;18.784;2022-10-15T06:22:44;1004.69;;;12.57;70.33
48810;BME280;40070;47.322;18.784;2022-10-15T06:24:46;1004.65;;;12.51;70.47
48810;BME280;40070;47.322;18.784;2022-10-15T06:26:49;1004.65;;;12.61;70.43
48810;BME280;40070;47.322;18.784;2022-10-15T06:28:51;1004.67;;;12.60;70.52
48810;BME280;40070;47.322;18.784;2022-10-15T06:30:57;1004.69;;;12.55;71.03
48810;BME280;40070;47.322;18.784;2022-10-15T06:33:00;1004.78;;;12.56;71.28
48810;BME280;40070;47.322;18.784;2022-10-15T06:35:03;1004.79;;;12.67;71.24
48810;BME280;40070;47.322;18.784;2022-10-15T06:37:05;1004.81;;;13.00;70.50
48810;BME280;40070;47.322;18.784;2022-10-15T06:39:08;1004.81;;;13.20;69.88
48810;BME280;40070;47.322;18.784;2022-10-15T06:41:10;1004.86;;;13.11;70.14
48810;BME280;40070;47.322;18.784;2022-10-15T06:43:12;1004.81;;;13.17;70.06
48810;BME280;40070;47.322;18.784;2022-10-15T06:45:15;1004.86;;;13.29;69.54
48810;BME280;40070;47.322;18.784;2022-10-15T06:47:17;1004.93;;;13.43;69.85
48810;BME280;40070;47.322;18.784;2022-10-15T06:49:20;1004.94;;;13.49;69.70
48810;BME280;40070;47.322;18.784;2022-10-15T06:51:22;1004.98;;;13.58;69.67
48810;BME280;40070;47.322;18.784;2022-10-15T06:53:25;1004.99;;;13.86;68.27
48810;BME280;40070;47.322;18.784;2022-10-15T06:55:27;1005.02;;;13.79;68.79
48810;BME280;40070;47.322;18.784;2022-10-15T06:57:30;1005.04;;;13.66;69.41
48810;BME280;40070;47.322;18.784;2022-10-15T06:59:32;1005.06;;;13.78;69.44
48810;BME280;40070;47.322;18.784;2022-10-15T07:01:35;1005.05;;;14.00;68.49
48810;BME280;40070;47.322;18.784;2022-10-15T07:03:37;1005.06;;;14.06;68.32
48810;BME280;40070;47.322;18.784;2022-10-15T07:05:39;1005.03;;;13.96;69.15
48810;BME280;40070;47.322;18.784;2022-10-15T07:07:42;1005.00;;;13.87;68.97
48810;BME280;40070;47.322;18.784;2022-10-15T07:09:44;1005.02;;;13.77;69.09
48810;BME280;40070;47.322;18.784;2022-10-15T07:11:47;1004.97;;;13.66;69.05
48810;BME280;40070;47.322;18.784;2022-10-15T07:13:49;1004.94;;;13.53;70.05
48810;BME280;40070;47.322;18.784;2022-10-15T07:15:52;1004.91;;;13.92;69.16
48810;BME280;40070;47.322;18.784;2022-10-15T07:17:54;1004.93;;;13.79;69.74
48810;BME280;40070;47.322;18.784;2022-10-15T07:19:57;1004.88;;;13.82;69.70
48810;BME280;40070;47.322;18.784;2022-10-15T07:21:59;1004.89;;;14.06;68.99
48810;BME280;40070;47.322;18.784;2022-10-15T07:24:02;1004.88;;;14.33;68.14
48810;BME280;40070;47.322;18.784;2022-10-15T07:26:04;1004.89;;;14.30;68.45
48810;BME280;40070;47.322;18.784;2022-10-15T07:28:07;1004.92;;;14.31;67.86
48810;BME280;40070;47.322;18.784;2022-10-15T07:30:09;1004.92;;;14.31;68.15
48810;BME280;40070;47.322;18.784;2022-10-15T07:32:12;1004.92;;;14.47;67.81
48810;BME280;40070;47.322;18.784;2022-10-15T07:34:14;1004.85;;;14.69;67.52
48810;BME280;40070;47.322;18.784;2022-10-15T07:36:17;1004.86;;;14.81;66.74
48810;BME280;40070;47.322;18.784;2022-10-15T07:38:20;1004.90;;;14.95;67.10
48810;BME280;40070;47.322;18.784;2022-10-15T07:40:22;1004.92;;;15.22;66.34
48810;BME280;40070;47.322;18.784;2022-10-15T07:42:25;1004.92;;;15.31;65.05
48810;BME280;40070;47.322;18.784;2022-10-15T07:44:27;1004.95;;;15.38;65.35
48810;BME280;40070;47.322;18.784;2022-10-15T07:46:29;1004.92;;;15.47;65.11
48810;BME280;40070;47.322;18.784;2022-10-15T07:48:32;1004.98;;;15.52;65.25
48810;BME280;40070;47.322;18.784;2022-10-15T07:50:34;1004.98;;;15.53;64.36
48810;BME280;40070;47.322;18.784;2022-10-15T07:52:37;1005.01;;;15.66;64.29
48810;BME280;40070;47.322;18.784;2022-10-15T07:54:39;1005.03;;;15.52;64.27
48810;BME280;40070;47.322;18.784;2022-10-15T07:56:42;1004.97;;;15.47;64.71
48810;BME280;40070;47.322;18.784;2022-10-15T07:58:44;1004.99;;;15.62;64.63
48810;BME280;40070;47.322;18.784;2022-10-15T08:00:47;1005.03;;;15.77;64.10
48810;BME280;40070;47.322;18.784;2022-10-15T08:02:49;1005.01;;;16.05;63.71
48810;BME280;40070;47.322;18.784;2022-10-15T08:04:51;1004.99;;;15.94;63.51
48810;BME280;40070;47.322;18.784;2022-10-15T08:06:54;1005.00;;;15.68;64.75
48810;BME280;40070;47.322;18.784;2022-10-15T08:08:56;1005.01;;;15.80;64.00
48810;BME280;40070;47.322;18.784;2022-10-15T08:11:05;1004.99;;;16.01;64.27
48810;BME280;40070;47.322;18.784;2022-10-15T08:13:08;1005.04;;;15.98;64.07
48810;BME280;40070;47.322;18.784;2022-10-15T08:15:11;1005.07;;;16.27;63.32
48810;BME280;40070;47.322;18.784;2022-10-15T08:17:13;1005.10;;;16.36;62.71
48810;BME280;40070;47.322;18.784;2022-10-15T08:19:16;1005.08;;;16.68;61.69
48810;BME280;40070;47.322;18.784;2022-10-15T08:21:18;1005.09;;;16.64;61.40
48810;BME280;40070;47.322;18.784;2022-10-15T08:23:21;1005.09;;;16.75;61.14
48810;BME280;40070;47.322;18.784;2022-10-15T08:25:23;1005.06;;;16.92;60.75
48810;BME280;40070;47.322;18.784;2022-10-15T08:27:26;1005.02;;;17.11;59.66
48810;BME280;40070;47.322;18.784;2022-10-15T08:29:28;1005.01;;;17.07;59.51
48810;BME280;40070;47.322;18.784;2022-10-15T08:31:31;1005.02;;;16.99;60.49
48810;BME280;40070;47.322;18.784;2022-10-15T08:33:34;1005.07;;;17.00;60.19
48810;BME280;40070;47.322;18.784;2022-10-15T08:35:39;1005.10;;;17.44;59.90
48810;BME280;40070;47.322;18.784;2022-10-15T08:37:42;1005.12;;;17.49;59.04
48810;BME280;40070;47.322;18.784;2022-10-15T08:39:44;1005.15;;;17.78;58.65
48810;BME280;40070;47.322;18.784;2022-10-15T08:41:47;1005.12;;;18.09;58.25
48810;BME280;40070;47.322;18.784;2022-10-15T08:43:53;1005.06;;;18.45;56.42
48810;BME280;40070;47.322;18.784;2022-10-15T08:45:58;1005.10;;;18.12;56.52
48810;BME280;40070;47.322;18.784;2022-10-15T08:48:06;1005.01;;;18.44;55.50
48810;BME280;40070;47.322;18.784;2022-10-15T08:52:45;1005.04;;;18.75;55.46
48810;BME280;40070;47.322;18.784;2022-10-15T08:54:48;1005.01;;;18.81;55.48
48810;BME280;40070;47.322;18.784;2022-10-15T08:56:52;1004.99;;;18.99;54.59
48810;BME280;40070;47.322;18.784;2022-10-15T09:01:23;1005.02;;;18.99;53.42
48810;BME280;40070;47.322;18.784;2022-10-15T09:03:38;1005.09;;;19.14;54.12
48810;BME280;40070;47.322;18.784;2022-10-15T09:05:49;1005.02;;;19.19;53.15
48810;BME280;40070;47.322;18.784;2022-10-15T09:07:59;1005.01;;;19.38;52.79
48810;BME280;40070;47.322;18.784;2022-10-15T09:12:35;1005.02;;;19.49;52.13
48810;BME280;40070;47.322;18.784;2022-10-15T09:14:43;1005.01;;;19.35;52.39
48810;BME280;40070;47.322;18.784;2022-10-15T09:16:48;1005.02;;;19.53;52.81
48810;BME280;40070;47.322;18.784;2022-10-15T09:18:51;1004.97;;;19.69;51.59
48810;BME280;40070;47.322;18.784;2022-10-15T09:20:53;1005.00;;;19.97;51.10
48810;BME280;40070;47.322;18.784;2022-10-15T09:22:56;1005.01;;;20.08;49.86
48810;BME280;40070;47.322;18.784;2022-10-15T09:25:01;1005.04;;;20.34;49.77
48810;BME280;40070;47.322;18.784;2022-10-15T09:27:18;1005.12;;;20.66;48.86
48810;BME280;40070;47.322;18.784;2022-10-15T09:31:49;1005.14;;;20.55;49.09
48810;BME280;40070;47.322;18.784;2022-10-15T09:34:11;1005.16;;;20.64;48.96
48810;BME280;40070;47.322;18.784;2022-10-15T09:36:18;1005.20;;;20.67;48.24
48810;BME280;40070;47.322;18.784;2022-10-15T09:38:33;1005.18;;;20.73;48.57
48810;BME280;40070;47.322;18.784;2022-10-15T09:41:18;1005.10;;;20.84;47.23
48810;BME280;40070;47.322;18.784;2022-10-15T09:43:07;1005.01;;;20.75;47.95
48810;BME280;40070;47.322;18.784;2022-10-15T09:45:12;1004.94;;;21.14;47.09
48810;BME280;40070;47.322;18.784;2022-10-15T09:47:31;1004.93;;;21.42;46.51
48810;BME280;40070;47.322;18.784;2022-10-15T09:49:34;1004.92;;;21.15;46.96
48810;BME280;40070;47.322;18.784;2022-10-15T09:51:42;1004.90;;;21.50;46.06
48810;BME280;40070;47.322;18.784;2022-10-15T09:54:00;1004.89;;;21.02;46.58
48810;BME280;40070;47.322;18.784;2022-10-15T09:56:14;1004.88;;;20.32;47.78
48810;BME280;40070;47.322;18.784;2022-10-15T09:58:22;1004.90;;;20.18;47.59
48810;BME280;40070;47.322;18.784;2022-10-15T10:00:38;1004.91;;;20.23;47.52
48810;BME280;40070;47.322;18.784;2022-10-15T10:02:40;1004.96;;;20.15;48.48
48810;BME280;40070;47.322;18.784;2022-10-15T10:04:42;1004.89;;;19.98;47.88
48810;BME280;40070;47.322;18.784;2022-10-15T10:06:49;1004.90;;;19.87;47.82
48810;BME280;40070;47.322;18.784;2022-10-15T10:08:53;1004.90;;;20.17;47.89
48810;BME280;40070;47.322;18.784;2022-10-15T10:10:57;1004.90;;;20.29;47.63
48810;BME280;40070;47.322;18.784;2022-10-15T10:13:00;1004.86;;;20.29;46.36
48810;BME280;40070;47.322;18.784;2022-10-15T10:17:24;1004.85;;;20.10;46.29
48810;BME280;40070;47.322;18.784;2022-10-15T10:19:26;1004.74;;;20.43;45.07
48810;BME280;40070;47.322;18.784;2022-10-15T10:21:33;1004.75;;;20.37;45.16
48810;BME280;40070;47.322;18.784;2022-10-15T10:23:37;1004.76;;;20.14;46.69
48810;BME280;40070;47.322;18.784;2022-10-15T10:25:40;1004.74;;;20.29;47.37
48810;BME280;40070;47.322;18.784;2022-10-15T10:27:43;1004.76;;;20.43;47.18
48810;BME280;40070;47.322;18.784;2022-10-15T10:29:47;1004.73;;;20.74;47.37
48810;BME280;40070;47.322;18.784;2022-10-15T10:31:51;1004.65;;;20.78;46.76
48810;BME280;40070;47.322;18.784;2022-10-15T10:33:53;1004.62;;;20.83;47.20
48810;BME280;40070;47.322;18.784;2022-10-15T10:35:56;1004.62;;;20.93;46.80
48810;BME280;40070;47.322;18.784;2022-10-15T10:38:00;1004.59;;;20.82;47.00
48810;BME280;40070;47.322;18.784;2022-10-15T10:40:03;1004.63;;;21.04;45.92
48810;BME280;40070;47.322;18.784;2022-10-15T10:42:06;1004.65;;;21.20;45.73
48810;BME280;40070;47.322;18.784;2022-10-15T10:44:16;1004.60;;;21.35;44.97
48810;BME280;40070;47.322;18.784;2022-10-15T10:46:21;1004.58;;;21.27;45.71
48810;BME280;40070;47.322;18.784;2022-10-15T10:48:27;1004.59;;;20.89;45.76
48810;BME280;40070;47.322;18.784;2022-10-15T10:50:33;1004.50;;;20.57;46.11
48810;BME280;40070;47.322;18.784;2022-10-15T10:52:36;1004.54;;;20.73;46.47
48810;BME280;40070;47.322;18.784;2022-10-15T10:54:38;1004.55;;;20.64;46.75
48810;BME280;40070;47.322;18.784;2022-10-15T10:56:42;1004.53;;;20.51;46.24
48810;BME280;40070;47.322;18.784;2022-10-15T10:58:44;1004.57;;;20.46;45.88
48810;BME280;40070;47.322;18.784;2022-10-15T11:00:51;1004.51;;;20.40;46.82
48810;BME280;40070;47.322;18.784;2022-10-15T11:02:54;1004.43;;;20.58;46.19
48810;BME280;40070;47.322;18.784;2022-10-15T11:04:58;1004.41;;;20.23;46.83
48810;BME280;40070;47.322;18.784;2022-10-15T11:09:29;1004.31;;;20.09;46.94
48810;BME280;40070;47.322;18.784;2022-10-15T11:11:38;1004.27;;;20.16;46.41
48810;BME280;40070;47.322;18.784;2022-10-15T11:14:30;1004.28;;;20.03;47.18
48810;BME280;40070;47.322;18.784;2022-10-15T11:16:13;1004.29;;;20.24;46.77
48810;BME280;40070;47.322;18.784;2022-10-15T11:18:31;1004.24;;;20.29;47.16
48810;BME280;40070;47.322;18.784;2022-10-15T11:20:46;1004.16;;;20.48;46.30
48810;BME280;40070;47.322;18.784;2022-10-15T11:23:03;1004.13;;;20.30;46.97
48810;BME280;40070;47.322;18.784;2022-10-15T11:30:04;1004.10;;;20.07;47.49
48810;BME280;40070;47.322;18.784;2022-10-15T11:36:59;1004.01;;;20.04;46.83